sensor_id;sensor_type;location;lat;lon;timestamp;pressure;altitude;pressure_sealevel;temperature;humidity
7754;BME280;3921;42.266;23.122;2023-04-27T00:00:27;95261.38;;;10.90;52.49
7754;BME280;3921;42.266;23.122;2023-04-27T00:02:54;95168.06;;;10.42;52.43
7754;BME280;3921;42.266;23.122;2023-04-27T00:05:22;95309.56;;;11.27;52.13
7754;BME280;3921;42.266;23.122;2023-04-27T00:07:49;95206.34;;;10.64;51.59
7754;BME280;3921;42.266;23.122;2023-04-27T00:10:16;95228.78;;;10.81;51.37
7754;BME280;3921;42.266;23.122;2023-04-27T00:12:43;95418.56;;;12.03;50.77
7754;BME280;3921;42.266;23.122;2023-04-27T00:15:11;95119.66;;;10.26;50.88
7754;BME280;3921;42.266;23.122;2023-04-27T00:17:38;95171.31;;;10.49;50.24
7754;BME280;3921;42.266;23.122;2023-04-27T00:20:08;95306.94;;;11.36;50.82
7754;BME280;3921;42.266;23.122;2023-04-27T00:22:36;94990.06;;;9.35;51.41
7754;BME280;3921;42.266;23.122;2023-04-27T00:25:04;95088.16;;;9.96;50.99
7754;BME280;3921;42.266;23.122;2023-04-27T00:27:31;95306.22;;;11.25;51.30
7754;BME280;3921;42.266;23.122;2023-04-27T00:29:58;95323.84;;;11.25;50.28
7754;BME280;3921;42.266;23.122;2023-04-27T00:32:26;95307.09;;;11.23;50.27
7754;BME280;3921;42.266;23.122;2023-04-27T00:34:53;95353.00;;;11.41;48.99
7754;BME280;3921;42.266;23.122;2023-04-27T00:37:20;94960.19;;;9.12;48.76
7754;BME280;3921;42.266;23.122;2023-04-27T00:39:47;95367.03;;;11.61;49.39
7754;BME280;3921;42.266;23.122;2023-04-27T00:42:14;95369.66;;;11.50;49.37
7754;BME280;3921;42.266;23.122;2023-04-27T00:44:44;95099.69;;;10.13;49.72
7754;BME280;3921;42.266;23.122;2023-04-27T00:47:19;94857.09;;;8.59;50.31
7754;BME280;3921;42.266;23.122;2023-04-27T00:49:48;95195.50;;;10.59;49.91
7754;BME280;3921;42.266;23.122;2023-04-27T00:52:16;95207.09;;;10.72;49.97
7754;BME280;3921;42.266;23.122;2023-04-27T00:54:43;95372.00;;;11.64;49.22
7754;BME280;3921;42.266;23.122;2023-04-27T00:57:10;95094.03;;;9.95;49.38
7754;BME280;3921;42.266;23.122;2023-04-27T00:59:37;95183.81;;;10.58;50.54
7754;BME280;3921;42.266;23.122;2023-04-27T01:02:04;95318.72;;;11.33;50.56
7754;BME280;3921;42.266;23.122;2023-04-27T01:04:31;95324.50;;;11.39;49.89
7754;BME280;3921;42.266;23.122;2023-04-27T01:07:00;95214.75;;;10.60;49.73
7754;BME280;3921;42.266;23.122;2023-04-27T01:09:28;95271.25;;;11.07;49.01
7754;BME280;3921;42.266;23.122;2023-04-27T01:11:55;95357.13;;;11.49;49.53
7754;BME280;3921;42.266;23.122;2023-04-27T01:14:22;95358.78;;;11.50;48.57
7754;BME280;3921;42.266;23.122;2023-04-27T01:16:50;95329.59;;;11.36;49.55
7754;BME280;3921;42.266;23.122;2023-04-27T01:19:17;95201.59;;;10.38;49.02
7754;BME280;3921;42.266;23.122;2023-04-27T01:21:44;95321.19;;;11.34;48.27
7754;BME280;3921;42.266;23.122;2023-04-27T01:24:12;95233.91;;;10.72;48.29
7754;BME280;3921;42.266;23.122;2023-04-27T01:26:41;95380.50;;;11.55;49.18
7754;BME280;3921;42.266;23.122;2023-04-27T01:29:08;95228.91;;;10.70;49.19
7754;BME280;3921;42.266;23.122;2023-04-27T01:31:35;95357.13;;;11.47;50.39
7754;BME280;3921;42.266;23.122;2023-04-27T01:34:03;95344.50;;;11.50;51.54
7754;BME280;3921;42.266;23.122;2023-04-27T01:36:30;94944.47;;;8.94;51.34
7754;BME280;3921;42.266;23.122;2023-04-27T01:38:57;95408.84;;;11.69;51.43
7754;BME280;3921;42.266;23.122;2023-04-27T01:41:26;95329.75;;;11.21;50.60
7754;BME280;3921;42.266;23.122;2023-04-27T01:43:53;95336.34;;;11.31;50.34
7754;BME280;3921;42.266;23.122;2023-04-27T01:46:20;95322.16;;;11.23;49.97
7754;BME280;3921;42.266;23.122;2023-04-27T01:48:46;95155.72;;;10.18;50.53
7754;BME280;3921;42.266;23.122;2023-04-27T01:51:13;95219.72;;;10.68;50.31
7754;BME280;3921;42.266;23.122;2023-04-27T01:53:40;95276.44;;;10.90;48.83
7754;BME280;3921;42.266;23.122;2023-04-27T01:56:08;95178.25;;;10.28;47.78
7754;BME280;3921;42.266;23.122;2023-04-27T01:58:37;95235.75;;;10.54;49.06
7754;BME280;3921;42.266;23.122;2023-04-27T02:01:04;95345.63;;;11.23;49.96
7754;BME280;3921;42.266;23.122;2023-04-27T02:03:31;95378.28;;;11.31;48.33
7754;BME280;3921;42.266;23.122;2023-04-27T02:05:58;95397.22;;;11.61;47.14
7754;BME280;3921;42.266;23.122;2023-04-27T02:08:25;95270.69;;;10.80;48.00
7754;BME280;3921;42.266;23.122;2023-04-27T02:10:52;95251.47;;;10.72;48.33
7754;BME280;3921;42.266;23.122;2023-04-27T02:13:19;95318.09;;;11.12;49.27
7754;BME280;3921;42.266;23.122;2023-04-27T02:15:48;95205.75;;;10.44;47.68
7754;BME280;3921;42.266;23.122;2023-04-27T02:18:15;95259.91;;;10.69;47.66
7754;BME280;3921;42.266;23.122;2023-04-27T02:20:43;95328.13;;;11.15;47.27
7754;BME280;3921;42.266;23.122;2023-04-27T02:23:10;95359.13;;;11.16;47.53
7754;BME280;3921;42.266;23.122;2023-04-27T02:25:37;95403.94;;;11.60;48.21
7754;BME280;3921;42.266;23.122;2023-04-27T02:28:07;95157.53;;;10.02;47.52
7754;BME280;3921;42.266;23.122;2023-04-27T02:30:36;95290.69;;;10.88;46.89
7754;BME280;3921;42.266;23.122;2023-04-27T02:33:04;95324.84;;;11.09;47.71
7754;BME280;3921;42.266;23.122;2023-04-27T02:35:31;95369.91;;;11.27;48.17
7754;BME280;3921;42.266;23.122;2023-04-27T02:37:58;95335.78;;;11.05;48.16
7754;BME280;3921;42.266;23.122;2023-04-27T02:40:25;95344.16;;;11.05;48.44
7754;BME280;3921;42.266;23.122;2023-04-27T02:42:52;95053.63;;;9.30;48.69
7754;BME280;3921;42.266;23.122;2023-04-27T02:45:19;95390.81;;;11.32;48.74
7754;BME280;3921;42.266;23.122;2023-04-27T02:47:46;95415.16;;;11.30;48.21
7754;BME280;3921;42.266;23.122;2023-04-27T02:50:16;95390.88;;;11.28;48.86
7754;BME280;3921;42.266;23.122;2023-04-27T02:52:43;95343.44;;;10.96;47.62
7754;BME280;3921;42.266;23.122;2023-04-27T02:55:10;95393.47;;;11.20;46.66
7754;BME280;3921;42.266;23.122;2023-04-27T02:57:38;95452.75;;;11.47;46.66
7754;BME280;3921;42.266;23.122;2023-04-27T03:00:07;95396.72;;;11.28;47.20
7754;BME280;3921;42.266;23.122;2023-04-27T03:02:35;95475.09;;;11.73;47.60
7754;BME280;3921;42.266;23.122;2023-04-27T03:05:02;95383.44;;;11.19;47.62
7754;BME280;3921;42.266;23.122;2023-04-27T03:07:35;95362.69;;;10.97;47.60
7754;BME280;3921;42.266;23.122;2023-04-27T03:10:02;95489.38;;;11.73;46.16
7754;BME280;3921;42.266;23.122;2023-04-27T03:12:29;95280.97;;;10.54;45.67
7754;BME280;3921;42.266;23.122;2023-04-27T03:14:56;95320.28;;;10.61;46.64
7754;BME280;3921;42.266;23.122;2023-04-27T03:17:24;95382.84;;;10.90;47.05
7754;BME280;3921;42.266;23.122;2023-04-27T03:19:51;95188.75;;;9.69;47.45
7754;BME280;3921;42.266;23.122;2023-04-27T03:22:18;95390.34;;;10.97;47.31
7754;BME280;3921;42.266;23.122;2023-04-27T03:24:57;95175.44;;;9.61;47.16
7754;BME280;3921;42.266;23.122;2023-04-27T03:27:24;95392.91;;;10.87;47.39
7754;BME280;3921;42.266;23.122;2023-04-27T03:29:51;95366.13;;;10.86;46.62
7754;BME280;3921;42.266;23.122;2023-04-27T03:32:18;95139.59;;;9.43;47.04
7754;BME280;3921;42.266;23.122;2023-04-27T03:34:46;95410.34;;;11.07;46.61
7754;BME280;3921;42.266;23.122;2023-04-27T03:37:13;95230.38;;;9.96;45.93
7754;BME280;3921;42.266;23.122;2023-04-27T03:39:40;95387.88;;;10.87;46.39
7754;BME280;3921;42.266;23.122;2023-04-27T03:42:08;95004.09;;;8.43;47.29
7754;BME280;3921;42.266;23.122;2023-04-27T03:44:35;95324.63;;;10.44;46.73
7754;BME280;3921;42.266;23.122;2023-04-27T03:47:02;95438.75;;;11.17;47.31
7754;BME280;3921;42.266;23.122;2023-04-27T03:49:33;95422.97;;;11.01;47.72
7754;BME280;3921;42.266;23.122;2023-04-27T03:52:00;95261.41;;;9.87;47.13
7754;BME280;3921;42.266;23.122;2023-04-27T03:54:27;95312.19;;;10.24;48.01
7754;BME280;3921;42.266;23.122;2023-04-27T03:56:55;95162.19;;;9.40;48.20
7754;BME280;3921;42.266;23.122;2023-04-27T03:59:27;95088.19;;;8.83;46.78
7754;BME280;3921;42.266;23.122;2023-04-27T04:01:54;95381.47;;;10.53;46.39
7754;BME280;3921;42.266;23.122;2023-04-27T04:04:22;95331.44;;;10.25;46.32
7754;BME280;3921;42.266;23.122;2023-04-27T04:06:49;95405.59;;;10.75;46.20
7754;BME280;3921;42.266;23.122;2023-04-27T04:09:15;95380.72;;;10.42;46.40
7754;BME280;3921;42.266;23.122;2023-04-27T04:11:42;95368.22;;;10.34;46.92
7754;BME280;3921;42.266;23.122;2023-04-27T04:14:09;95040.03;;;8.27;46.36
7754;BME280;3921;42.266;23.122;2023-04-27T04:16:44;95036.69;;;8.28;45.77
7754;BME280;3921;42.266;23.122;2023-04-27T04:19:11;95275.63;;;9.80;45.44
7754;BME280;3921;42.266;23.122;2023-04-27T04:21:38;95547.53;;;11.43;44.88
7754;BME280;3921;42.266;23.122;2023-04-27T04:24:06;95342.47;;;9.95;45.60
7754;BME280;3921;42.266;23.122;2023-04-27T04:26:34;95240.81;;;9.27;45.92
7754;BME280;3921;42.266;23.122;2023-04-27T04:29:01;95397.56;;;10.27;46.48
7754;BME280;3921;42.266;23.122;2023-04-27T04:31:29;95400.88;;;10.34;46.82
7754;BME280;3921;42.266;23.122;2023-04-27T04:33:59;95419.22;;;10.45;47.15
7754;BME280;3921;42.266;23.122;2023-04-27T04:36:27;95395.81;;;10.35;46.51
7754;BME280;3921;42.266;23.122;2023-04-27T04:38:55;95325.00;;;9.81;46.32
7754;BME280;3921;42.266;23.122;2023-04-27T04:41:23;95422.56;;;10.43;46.85
7754;BME280;3921;42.266;23.122;2023-04-27T04:43:50;95376.66;;;10.21;47.83
7754;BME280;3921;42.266;23.122;2023-04-27T04:46:17;95385.78;;;10.35;48.34
7754;BME280;3921;42.266;23.122;2023-04-27T04:48:44;95420.03;;;10.46;46.85
7754;BME280;3921;42.266;23.122;2023-04-27T04:51:15;95470.94;;;10.75;46.51
7754;BME280;3921;42.266;23.122;2023-04-27T04:53:43;95450.06;;;10.67;45.84
7754;BME280;3921;42.266;23.122;2023-04-27T04:56:11;95531.00;;;11.12;46.23
7754;BME280;3921;42.266;23.122;2023-04-27T04:58:39;95450.00;;;10.73;46.36
7754;BME280;3921;42.266;23.122;2023-04-27T05:01:06;95298.28;;;9.73;45.29
7754;BME280;3921;42.266;23.122;2023-04-27T05:03:33;95412.50;;;10.46;45.60
7754;BME280;3921;42.266;23.122;2023-04-27T05:08:37;95311.66;;;9.75;45.03
7754;BME280;3921;42.266;23.122;2023-04-27T05:11:04;95281.72;;;9.38;45.46
7754;BME280;3921;42.266;23.122;2023-04-27T05:13:31;95095.91;;;8.28;46.00
7754;BME280;3921;42.266;23.122;2023-04-27T05:16:05;95461.81;;;10.62;46.37
7754;BME280;3921;42.266;23.122;2023-04-27T05:18:35;95102.63;;;8.18;45.86
7754;BME280;3921;42.266;23.122;2023-04-27T05:21:02;95064.25;;;8.17;45.96
7754;BME280;3921;42.266;23.122;2023-04-27T05:23:29;95378.38;;;10.06;45.78
7754;BME280;3921;42.266;23.122;2023-04-27T05:25:58;95350.88;;;9.90;45.42
7754;BME280;3921;42.266;23.122;2023-04-27T05:28:26;95486.06;;;10.68;45.31
7754;BME280;3921;42.266;23.122;2023-04-27T05:30:53;95410.16;;;10.14;46.03
7754;BME280;3921;42.266;23.122;2023-04-27T05:33:20;95181.75;;;8.74;45.60
7754;BME280;3921;42.266;23.122;2023-04-27T05:35:47;95494.47;;;10.62;45.80
7754;BME280;3921;42.266;23.122;2023-04-27T05:38:14;95506.16;;;10.66;44.69
7754;BME280;3921;42.266;23.122;2023-04-27T05:40:42;95534.59;;;10.71;45.86
7754;BME280;3921;42.266;23.122;2023-04-27T05:43:10;95610.53;;;11.27;46.75
7754;BME280;3921;42.266;23.122;2023-04-27T05:45:38;95339.25;;;9.73;46.60
7754;BME280;3921;42.266;23.122;2023-04-27T05:48:05;95473.50;;;10.64;45.82
7754;BME280;3921;42.266;23.122;2023-04-27T05:50:32;95471.13;;;10.42;45.66
7754;BME280;3921;42.266;23.122;2023-04-27T05:52:59;95621.41;;;11.29;45.96
7754;BME280;3921;42.266;23.122;2023-04-27T05:55:26;95547.06;;;10.91;46.00
7754;BME280;3921;42.266;23.122;2023-04-27T05:57:57;95386.00;;;9.93;45.30
7754;BME280;3921;42.266;23.122;2023-04-27T06:00:26;95504.47;;;10.67;45.32
7754;BME280;3921;42.266;23.122;2023-04-27T06:02:53;95416.06;;;10.05;45.42
7754;BME280;3921;42.266;23.122;2023-04-27T06:05:21;95623.16;;;11.21;46.30
7754;BME280;3921;42.266;23.122;2023-04-27T06:07:49;95565.41;;;11.04;45.49
7754;BME280;3921;42.266;23.122;2023-04-27T06:10:17;95532.94;;;10.73;44.98
7754;BME280;3921;42.266;23.122;2023-04-27T06:12:43;95415.22;;;10.01;45.07
7754;BME280;3921;42.266;23.122;2023-04-27T06:15:11;95469.53;;;10.28;45.83
7754;BME280;3921;42.266;23.122;2023-04-27T06:17:39;95372.66;;;9.84;45.25
7754;BME280;3921;42.266;23.122;2023-04-27T06:20:08;95496.19;;;10.57;44.22
7754;BME280;3921;42.266;23.122;2023-04-27T06:22:36;95500.47;;;10.35;44.84
7754;BME280;3921;42.266;23.122;2023-04-27T06:25:04;95484.44;;;10.54;44.45
7754;BME280;3921;42.266;23.122;2023-04-27T06:27:31;95486.19;;;10.45;45.27
7754;BME280;3921;42.266;23.122;2023-04-27T06:29:58;95464.50;;;10.28;44.66
7754;BME280;3921;42.266;23.122;2023-04-27T06:32:25;95392.72;;;9.80;45.06
7754;BME280;3921;42.266;23.122;2023-04-27T06:34:54;95606.44;;;11.15;45.50
7754;BME280;3921;42.266;23.122;2023-04-27T06:37:21;95625.63;;;11.24;44.38
7754;BME280;3921;42.266;23.122;2023-04-27T06:39:48;95483.69;;;10.45;44.81
7754;BME280;3921;42.266;23.122;2023-04-27T06:42:15;95300.97;;;9.38;44.52
7754;BME280;3921;42.266;23.122;2023-04-27T06:44:42;95532.91;;;10.79;44.75
7754;BME280;3921;42.266;23.122;2023-04-27T06:47:09;95461.00;;;10.57;44.81
7754;BME280;3921;42.266;23.122;2023-04-27T06:49:36;95510.28;;;10.76;45.15
7754;BME280;3921;42.266;23.122;2023-04-27T06:52:04;95351.66;;;9.96;44.70
7754;BME280;3921;42.266;23.122;2023-04-27T06:54:31;95227.50;;;9.19;45.42
7754;BME280;3921;42.266;23.122;2023-04-27T06:56:58;95612.09;;;11.44;44.69
7754;BME280;3921;42.266;23.122;2023-04-27T06:59:25;95495.94;;;10.89;44.81
7754;BME280;3921;42.266;23.122;2023-04-27T07:01:52;95481.84;;;10.74;44.29
7754;BME280;3921;42.266;23.122;2023-04-27T07:04:19;95445.09;;;10.55;44.22
7754;BME280;3921;42.266;23.122;2023-04-27T07:06:47;95466.78;;;10.73;44.89
7754;BME280;3921;42.266;23.122;2023-04-27T07:09:17;95269.13;;;9.52;44.95
7754;BME280;3921;42.266;23.122;2023-04-27T07:11:44;95040.91;;;8.15;44.79
7754;BME280;3921;42.266;23.122;2023-04-27T07:14:11;95573.44;;;11.52;44.88
7754;BME280;3921;42.266;23.122;2023-04-27T07:16:38;95388.38;;;10.17;45.57
7754;BME280;3921;42.266;23.122;2023-04-27T07:19:05;95140.84;;;8.75;45.03
7754;BME280;3921;42.266;23.122;2023-04-27T07:21:32;95486.72;;;10.89;45.03
7754;BME280;3921;42.266;23.122;2023-04-27T07:23:59;95539.25;;;11.31;44.97
7754;BME280;3921;42.266;23.122;2023-04-27T07:26:27;95455.69;;;10.98;45.05
7754;BME280;3921;42.266;23.122;2023-04-27T07:28:56;95580.06;;;11.66;44.32
7754;BME280;3921;42.266;23.122;2023-04-27T07:31:23;95390.69;;;10.55;44.49
7754;BME280;3921;42.266;23.122;2023-04-27T07:33:50;95114.97;;;8.68;44.85
7754;BME280;3921;42.266;23.122;2023-04-27T07:36:18;95423.97;;;10.82;45.06
7754;BME280;3921;42.266;23.122;2023-04-27T07:38:45;95410.66;;;10.66;45.19
7754;BME280;3921;42.266;23.122;2023-04-27T07:41:12;95373.97;;;10.47;45.16
7754;BME280;3921;42.266;23.122;2023-04-27T07:43:40;95483.16;;;11.21;44.48
7754;BME280;3921;42.266;23.122;2023-04-27T07:46:07;95448.84;;;11.11;44.26
7754;BME280;3921;42.266;23.122;2023-04-27T07:48:36;95563.97;;;11.87;44.75
7754;BME280;3921;42.266;23.122;2023-04-27T07:51:03;95378.84;;;10.68;45.01
7754;BME280;3921;42.266;23.122;2023-04-27T07:53:33;94948.41;;;7.98;45.51
7754;BME280;3921;42.266;23.122;2023-04-27T07:56:00;95237.25;;;9.71;44.02
7754;BME280;3921;42.266;23.122;2023-04-27T07:58:28;95571.44;;;11.93;44.43
7754;BME280;3921;42.266;23.122;2023-04-27T08:00:56;95254.56;;;10.06;44.60
7754;BME280;3921;42.266;23.122;2023-04-27T08:03:23;95271.31;;;10.05;44.27
7754;BME280;3921;42.266;23.122;2023-04-27T08:05:51;95395.38;;;10.97;44.10
7754;BME280;3921;42.266;23.122;2023-04-27T08:08:18;95583.78;;;12.18;44.77
7754;BME280;3921;42.266;23.122;2023-04-27T08:10:45;95241.19;;;10.04;44.93
7754;BME280;3921;42.266;23.122;2023-04-27T08:13:12;95481.97;;;11.57;45.24
7754;BME280;3921;42.266;23.122;2023-04-27T08:15:39;95274.41;;;10.40;44.88
7754;BME280;3921;42.266;23.122;2023-04-27T08:18:08;95480.13;;;11.75;44.72
7754;BME280;3921;42.266;23.122;2023-04-27T08:20:34;95396.72;;;11.28;43.90
7754;BME280;3921;42.266;23.122;2023-04-27T08:23:01;95498.44;;;11.92;43.18
7754;BME280;3921;42.266;23.122;2023-04-27T08:25:28;95471.72;;;11.74;43.47
7754;BME280;3921;42.266;23.122;2023-04-27T08:27:55;95472.47;;;11.87;42.62
7754;BME280;3921;42.266;23.122;2023-04-27T08:30:22;95405.78;;;11.48;42.94
7754;BME280;3921;42.266;23.122;2023-04-27T08:32:50;95512.44;;;12.14;43.48
7754;BME280;3921;42.266;23.122;2023-04-27T08:35:24;95429.88;;;11.67;44.69
7754;BME280;3921;42.266;23.122;2023-04-27T08:37:51;95363.97;;;11.36;44.76
7754;BME280;3921;42.266;23.122;2023-04-27T08:40:19;95395.91;;;11.28;43.99
7754;BME280;3921;42.266;23.122;2023-04-27T08:42:53;95479.81;;;12.04;42.24
7754;BME280;3921;42.266;23.122;2023-04-27T08:45:21;95573.00;;;12.79;41.96
7754;BME280;3921;42.266;23.122;2023-04-27T08:47:48;95369.75;;;11.42;41.98
7754;BME280;3921;42.266;23.122;2023-04-27T08:50:16;95448.94;;;11.91;42.19
7754;BME280;3921;42.266;23.122;2023-04-27T08:52:47;95247.28;;;10.72;43.23
7754;BME280;3921;42.266;23.122;2023-04-27T08:55:14;95075.84;;;9.69;43.65
7754;BME280;3921;42.266;23.122;2023-04-27T08:57:41;95495.53;;;12.24;43.97
7754;BME280;3921;42.266;23.122;2023-04-27T09:00:09;95283.75;;;11.10;41.64
7754;BME280;3921;42.266;23.122;2023-04-27T09:02:43;95434.69;;;11.90;42.11
7754;BME280;3921;42.266;23.122;2023-04-27T09:05:15;95504.69;;;12.31;41.18
7754;BME280;3921;42.266;23.122;2023-04-27T09:07:54;95193.13;;;10.47;41.08
7754;BME280;3921;42.266;23.122;2023-04-27T09:10:21;95432.66;;;12.18;40.95
7754;BME280;3921;42.266;23.122;2023-04-27T09:12:54;95470.25;;;12.33;42.23
7754;BME280;3921;42.266;23.122;2023-04-27T09:15:22;95379.25;;;11.91;42.32
7754;BME280;3921;42.266;23.122;2023-04-27T09:17:53;95531.78;;;12.80;42.77
7754;BME280;3921;42.266;23.122;2023-04-27T09:20:21;95360.22;;;11.67;42.55
7754;BME280;3921;42.266;23.122;2023-04-27T09:22:51;95481.44;;;12.72;42.35
7754;BME280;3921;42.266;23.122;2023-04-27T09:25:23;95171.09;;;10.73;42.10
7754;BME280;3921;42.266;23.122;2023-04-27T09:27:51;95394.31;;;11.96;42.33
7754;BME280;3921;42.266;23.122;2023-04-27T09:30:18;95490.69;;;12.75;41.48
7754;BME280;3921;42.266;23.122;2023-04-27T09:32:53;95488.28;;;12.67;41.93
7754;BME280;3921;42.266;23.122;2023-04-27T09:35:21;95556.50;;;13.15;41.28
7754;BME280;3921;42.266;23.122;2023-04-27T09:37:52;95370.63;;;12.11;41.28
7754;BME280;3921;42.266;23.122;2023-04-27T09:40:21;95033.63;;;10.10;40.95
7754;BME280;3921;42.266;23.122;2023-04-27T09:42:51;95442.91;;;12.67;40.70
7754;BME280;3921;42.266;23.122;2023-04-27T09:45:18;95238.19;;;11.36;41.02
7754;BME280;3921;42.266;23.122;2023-04-27T09:47:45;95479.34;;;13.00;41.24
7754;BME280;3921;42.266;23.122;2023-04-27T09:50:13;95120.75;;;10.79;40.22
7754;BME280;3921;42.266;23.122;2023-04-27T09:52:40;95497.72;;;13.10;38.60
7754;BME280;3921;42.266;23.122;2023-04-27T09:55:10;95553.25;;;13.63;38.46
7754;BME280;3921;42.266;23.122;2023-04-27T09:57:47;95465.06;;;13.01;38.32
7754;BME280;3921;42.266;23.122;2023-04-27T10:00:29;95075.41;;;10.87;38.40
7754;BME280;3921;42.266;23.122;2023-04-27T10:03:09;95436.38;;;13.07;39.16
7754;BME280;3921;42.266;23.122;2023-04-27T10:08:51;95458.34;;;13.54;39.25
7754;BME280;3921;42.266;23.122;2023-04-27T10:11:20;95474.09;;;13.67;39.38
7754;BME280;3921;42.266;23.122;2023-04-27T10:13:50;95456.97;;;13.81;38.79
7754;BME280;3921;42.266;23.122;2023-04-27T10:16:18;95347.22;;;13.09;37.48
7754;BME280;3921;42.266;23.122;2023-04-27T10:18:50;95480.78;;;14.13;37.55
7754;BME280;3921;42.266;23.122;2023-04-27T10:21:18;95539.38;;;14.73;38.51
7754;BME280;3921;42.266;23.122;2023-04-27T10:23:45;95394.66;;;13.81;38.38
7754;BME280;3921;42.266;23.122;2023-04-27T10:26:22;95447.13;;;14.12;38.54
7754;BME280;3921;42.266;23.122;2023-04-27T10:28:57;95448.69;;;14.18;38.23
7754;BME280;3921;42.266;23.122;2023-04-27T10:31:27;95385.34;;;13.85;38.08
7754;BME280;3921;42.266;23.122;2023-04-27T10:34:04;95198.66;;;12.97;38.53
7754;BME280;3921;42.266;23.122;2023-04-27T10:36:36;95413.00;;;14.31;38.21
7754;BME280;3921;42.266;23.122;2023-04-27T10:39:13;95418.91;;;14.32;36.54
7754;BME280;3921;42.266;23.122;2023-04-27T10:41:50;95490.28;;;14.83;35.10
7754;BME280;3921;42.266;23.122;2023-04-27T10:44:18;95423.38;;;14.19;35.56
7754;BME280;3921;42.266;23.122;2023-04-27T10:46:49;95465.72;;;14.51;36.28
7754;BME280;3921;42.266;23.122;2023-04-27T10:49:17;95498.22;;;14.67;36.83
7754;BME280;3921;42.266;23.122;2023-04-27T10:51:44;95388.56;;;13.92;37.48
7754;BME280;3921;42.266;23.122;2023-04-27T10:54:12;95427.72;;;14.13;37.35
7754;BME280;3921;42.266;23.122;2023-04-27T10:56:39;95451.13;;;14.21;37.75
7754;BME280;3921;42.266;23.122;2023-04-27T10:59:08;95547.09;;;14.69;37.25
7754;BME280;3921;42.266;23.122;2023-04-27T11:01:36;95527.81;;;14.63;37.76
7754;BME280;3921;42.266;23.122;2023-04-27T11:04:03;95423.06;;;13.94;37.69
7754;BME280;3921;42.266;23.122;2023-04-27T11:06:30;95103.25;;;11.87;37.53
7754;BME280;3921;42.266;23.122;2023-04-27T11:09:00;95564.06;;;14.62;38.20
7754;BME280;3921;42.266;23.122;2023-04-27T11:11:27;95133.72;;;12.21;38.27
7754;BME280;3921;42.266;23.122;2023-04-27T11:13:54;95417.00;;;14.01;38.26
7754;BME280;3921;42.266;23.122;2023-04-27T11:16:23;95417.88;;;14.00;36.41
7754;BME280;3921;42.266;23.122;2023-04-27T11:18:50;95213.97;;;12.88;36.69
7754;BME280;3921;42.266;23.122;2023-04-27T11:21:18;95359.31;;;13.81;36.91
7754;BME280;3921;42.266;23.122;2023-04-27T11:23:46;95521.31;;;14.92;35.81
7754;BME280;3921;42.266;23.122;2023-04-27T11:26:14;95231.81;;;13.22;36.00
7754;BME280;3921;42.266;23.122;2023-04-27T11:28:43;95361.53;;;13.97;37.39
7754;BME280;3921;42.266;23.122;2023-04-27T11:31:10;95173.38;;;13.00;36.19
7754;BME280;3921;42.266;23.122;2023-04-27T11:33:47;95221.28;;;13.43;36.22
7754;BME280;3921;42.266;23.122;2023-04-27T11:36:17;95409.72;;;14.67;36.12
7754;BME280;3921;42.266;23.122;2023-04-27T11:38:45;95387.88;;;14.64;35.27
7754;BME280;3921;42.266;23.122;2023-04-27T11:41:12;95285.41;;;14.12;35.77
7754;BME280;3921;42.266;23.122;2023-04-27T11:43:40;95187.44;;;13.52;36.01
7754;BME280;3921;42.266;23.122;2023-04-27T11:46:10;95383.25;;;14.81;34.92
7754;BME280;3921;42.266;23.122;2023-04-27T11:48:39;95416.06;;;15.19;34.61
7754;BME280;3921;42.266;23.122;2023-04-27T11:51:09;95533.63;;;15.77;34.62
7754;BME280;3921;42.266;23.122;2023-04-27T11:53:37;95119.06;;;13.24;35.60
7754;BME280;3921;42.266;23.122;2023-04-27T11:56:06;95479.59;;;15.42;35.54
7754;BME280;3921;42.266;23.122;2023-04-27T11:58:33;95518.97;;;15.89;35.58
7754;BME280;3921;42.266;23.122;2023-04-27T12:01:01;95532.31;;;15.96;35.70
7754;BME280;3921;42.266;23.122;2023-04-27T12:03:29;95413.88;;;15.39;35.21
7754;BME280;3921;42.266;23.122;2023-04-27T12:05:57;95527.63;;;16.13;35.23
7754;BME280;3921;42.266;23.122;2023-04-27T12:08:24;95527.06;;;16.02;35.06
7754;BME280;3921;42.266;23.122;2023-04-27T12:10:52;95500.19;;;15.97;32.93
7754;BME280;3921;42.266;23.122;2023-04-27T12:13:19;95255.13;;;14.48;33.76
7754;BME280;3921;42.266;23.122;2023-04-27T12:15:46;95488.59;;;15.88;32.74
7754;BME280;3921;42.266;23.122;2023-04-27T12:18:13;95211.50;;;14.38;32.58
7754;BME280;3921;42.266;23.122;2023-04-27T12:20:40;95527.94;;;16.32;33.59
7754;BME280;3921;42.266;23.122;2023-04-27T12:23:08;95460.06;;;15.81;34.58
7754;BME280;3921;42.266;23.122;2023-04-27T12:25:35;95445.66;;;15.83;34.97
7754;BME280;3921;42.266;23.122;2023-04-27T12:28:03;95447.94;;;15.92;32.37
7754;BME280;3921;42.266;23.122;2023-04-27T12:30:30;95382.22;;;15.55;33.00
7754;BME280;3921;42.266;23.122;2023-04-27T12:32:57;95529.97;;;16.51;33.47
7754;BME280;3921;42.266;23.122;2023-04-27T12:35:25;95428.31;;;15.99;33.96
7754;BME280;3921;42.266;23.122;2023-04-27T12:37:56;95229.19;;;14.72;32.08
7754;BME280;3921;42.266;23.122;2023-04-27T12:40:24;95448.81;;;16.21;33.65
7754;BME280;3921;42.266;23.122;2023-04-27T12:42:52;95244.75;;;14.90;33.21
7754;BME280;3921;42.266;23.122;2023-04-27T12:45:19;95535.84;;;16.82;32.66
7754;BME280;3921;42.266;23.122;2023-04-27T12:47:46;95520.44;;;16.88;32.31
7754;BME280;3921;42.266;23.122;2023-04-27T12:50:14;95416.19;;;16.38;32.78
7754;BME280;3921;42.266;23.122;2023-04-27T12:52:41;95361.00;;;15.90;33.12
7754;BME280;3921;42.266;23.122;2023-04-27T12:55:09;95470.25;;;16.68;32.82
7754;BME280;3921;42.266;23.122;2023-04-27T12:57:44;95400.81;;;16.44;33.19
7754;BME280;3921;42.266;23.122;2023-04-27T13:00:12;95434.91;;;16.62;32.78
7754;BME280;3921;42.266;23.122;2023-04-27T13:02:39;95444.66;;;16.78;31.80
7754;BME280;3921;42.266;23.122;2023-04-27T13:05:07;95272.78;;;15.75;32.01
7754;BME280;3921;42.266;23.122;2023-04-27T13:07:36;95241.91;;;15.62;31.13
7754;BME280;3921;42.266;23.122;2023-04-27T13:10:03;95445.41;;;16.81;31.98
7754;BME280;3921;42.266;23.122;2023-04-27T13:12:31;95391.66;;;16.67;32.02
7754;BME280;3921;42.266;23.122;2023-04-27T13:14:59;95308.09;;;16.36;31.76
7754;BME280;3921;42.266;23.122;2023-04-27T13:17:26;95465.59;;;17.37;32.39
7754;BME280;3921;42.266;23.122;2023-04-27T13:19:53;95314.88;;;16.62;32.60
7754;BME280;3921;42.266;23.122;2023-04-27T13:22:20;95383.88;;;16.73;31.14